createdAt,value
2022-08-17T05:30:27.890Z,99.90
2022-08-17T05:32:58.889Z,99.90
2022-08-17T05:35:28.272Z,99.90
2022-08-17T05:37:56.735Z,99.90
2022-08-17T05:40:26.176Z,99.90
2022-08-17T05:45:55.795Z,99.90
2022-08-17T05:48:39.631Z,99.90
2022-08-17T05:54:00.703Z,98.20
2022-08-17T05:59:52.838Z,92.00
2022-08-17T06:02:47.664Z,91.50
2022-08-17T06:08:48.128Z,90.90
2022-08-17T06:11:47.794Z,91.10
2022-08-17T06:14:35.047Z,91.50
2022-08-17T06:17:08.211Z,92.00
2022-08-17T06:19:59.785Z,93.10
2022-08-17T06:22:33.328Z,94.00
2022-08-17T06:25:10.101Z,94.70
2022-08-17T06:27:45.914Z,93.30
2022-08-17T06:30:20.284Z,91.10
2022-08-17T06:32:49.945Z,85.90
2022-08-17T06:35:30.016Z,81.80
2022-08-17T06:38:37.767Z,82.00
2022-08-17T06:44:02.391Z,87.10
2022-08-17T06:46:48.634Z,91.30
2022-08-17T06:49:26.675Z,91.40
2022-08-17T06:52:11.992Z,92.10
2022-08-17T06:55:07.544Z,92.80
2022-08-17T06:57:51.294Z,93.70
2022-08-17T07:00:23.990Z,94.60
2022-08-17T07:02:57.766Z,91.80
2022-08-17T07:05:32.359Z,87.70
2022-08-17T07:08:27.690Z,88.60
2022-08-17T07:11:03.096Z,87.10
2022-08-17T07:13:40.815Z,89.80
2022-08-17T07:16:17.511Z,90.70
2022-08-17T07:18:45.416Z,91.40
2022-08-17T07:21:26.537Z,91.40
2022-08-17T07:24:26.303Z,91.90
2022-08-17T07:27:11.502Z,93.10
2022-08-17T07:29:42.875Z,94.00
2022-08-17T07:32:12.399Z,92.90
2022-08-17T07:35:02.198Z,93.20
2022-08-17T07:37:32.370Z,93.00
2022-08-17T07:40:15.415Z,93.00
2022-08-17T07:43:23.150Z,93.00
2022-08-17T07:46:48.906Z,93.30
2022-08-17T07:49:35.139Z,93.40
2022-08-17T07:52:47.613Z,93.20
2022-08-17T07:54:54.587Z,93.80
2022-08-17T07:57:30.115Z,93.90
2022-08-17T08:02:45.411Z,94.90
2022-08-17T08:05:48.634Z,96.10
2022-08-17T08:08:25.719Z,97.20
2022-08-17T08:11:04.641Z,97.10
2022-08-17T08:13:33.198Z,96.90
2022-08-17T08:16:26.992Z,96.90
2022-08-17T08:18:58.098Z,97.30
2022-08-17T08:21:49.038Z,97.20
2022-08-17T08:30:15.457Z,97.60
2022-08-17T08:33:10.680Z,98.40
2022-08-17T08:35:46.572Z,98.90
2022-08-17T08:38:39.324Z,98.90
2022-08-17T08:41:31.241Z,99.40
2022-08-17T08:44:59.536Z,99.80
2022-08-17T08:48:05.891Z,99.90
2022-08-17T08:51:05.221Z,99.90
2022-08-17T08:54:01.759Z,99.90
2022-08-17T08:57:21.463Z,99.90
2022-08-17T09:00:04.742Z,99.90
2022-08-17T09:03:12.057Z,99.90
2022-08-17T09:05:57.884Z,99.90
2022-08-17T09:08:53.362Z,99.90
2022-08-17T09:12:02.124Z,99.90
2022-08-17T09:14:45.000Z,99.90
2022-08-17T09:17:35.540Z,99.90
2022-08-17T09:20:27.690Z,99.90
2022-08-17T09:23:14.261Z,99.90
2022-08-17T09:25:49.935Z,99.90
2022-08-17T09:28:20.472Z,99.90
2022-08-17T09:30:52.240Z,99.90
2022-08-17T09:33:26.244Z,99.90
2022-08-17T09:35:59.235Z,99.90
2022-08-17T09:39:00.351Z,99.90
2022-08-17T09:41:52.775Z,99.90
2022-08-17T09:44:35.843Z,99.90
2022-08-17T09:47:22.894Z,99.90
2022-08-17T09:49:56.947Z,99.90
2022-08-17T09:52:28.353Z,99.90
2022-08-17T09:54:58.156Z,99.90
2022-08-17T10:00:18.978Z,99.90
2022-08-17T10:03:16.097Z,99.90
2022-08-17T10:06:23.302Z,99.90
2022-08-17T10:09:18.756Z,99.90
2022-08-17T10:12:17.080Z,99.90
2022-08-17T10:15:24.535Z,99.90
2022-08-17T10:18:33.221Z,99.90
2022-08-17T10:21:31.534Z,99.90
2022-08-17T10:24:41.435Z,99.90
2022-08-17T10:27:39.641Z,99.90
2022-08-17T10:30:11.113Z,99.90
2022-08-17T10:32:55.014Z,99.90
2022-08-17T10:35:31.310Z,99.90
2022-08-17T10:38:25.838Z,99.90
2022-08-17T10:41:18.268Z,99.90
2022-08-17T10:44:39.420Z,99.90
2022-08-17T10:47:12.766Z,99.90
2022-08-17T10:49:47.544Z,99.90
2022-08-17T10:55:15.898Z,99.90
2022-08-17T10:57:45.435Z,99.90
2022-08-17T11:00:35.270Z,99.90
2022-08-17T11:03:14.509Z,99.90
2022-08-17T11:06:06.843Z,99.90
2022-08-17T11:08:59.038Z,99.90
2022-08-17T11:11:40.544Z,99.90
2022-08-17T11:14:47.611Z,99.90
2022-08-17T11:17:52.654Z,99.90
2022-08-17T11:20:46.489Z,99.90
2022-08-17T11:23:53.793Z,99.90
2022-08-17T11:26:32.070Z,99.90
2022-08-17T11:29:09.567Z,99.90
2022-08-17T11:31:42.492Z,99.90
2022-08-17T11:34:26.297Z,99.90
2022-08-17T11:37:33.430Z,99.90
2022-08-17T11:40:14.872Z,99.90
2022-08-17T11:43:09.155Z,99.90
2022-08-17T11:45:58.653Z,99.90
2022-08-17T11:51:35.958Z,99.90
2022-08-17T11:57:02.448Z,99.10
2022-08-17T11:59:36.812Z,98.40
2022-08-17T12:02:31.471Z,98.10
2022-08-17T12:08:19.761Z,97.20
2022-08-17T12:10:58.189Z,96.80
2022-08-17T12:13:33.984Z,96.90
2022-08-17T12:16:08.263Z,96.40
2022-08-17T12:18:39.476Z,95.10
2022-08-17T12:24:23.441Z,94.20
2022-08-17T12:26:57.302Z,94.70
2022-08-17T12:29:38.893Z,95.00
2022-08-17T12:32:13.769Z,95.40
2022-08-17T12:34:43.596Z,94.80
2022-08-17T12:37:31.617Z,94.60
2022-08-17T12:40:02.188Z,94.20
2022-08-17T12:42:33.053Z,93.60
2022-08-17T12:45:00.980Z,93.80
2022-08-17T12:47:30.027Z,92.90
2022-08-17T12:50:29.824Z,92.70
2022-08-17T12:53:01.935Z,91.90
2022-08-17T12:55:35.058Z,91.10
2022-08-17T12:58:02.721Z,90.90
2022-08-17T13:00:38.156Z,90.90
2022-08-17T13:03:21.163Z,91.20
2022-08-17T13:06:00.770Z,90.00
2022-08-17T13:08:37.627Z,88.80
2022-08-17T13:13:56.092Z,86.80
2022-08-17T13:16:28.136Z,87.80
2022-08-17T13:19:06.955Z,85.40
2022-08-17T13:21:36.009Z,87.10
2022-08-17T13:24:29.375Z,85.50
2022-08-17T13:27:11.802Z,86.80
2022-08-17T13:32:36.106Z,86.30
2022-08-17T13:35:29.663Z,83.70
2022-08-17T13:38:05.464Z,82.30
2022-08-17T13:40:44.313Z,82.40
2022-08-17T13:43:12.573Z,83.00
2022-08-17T13:45:51.135Z,80.50
2022-08-17T13:48:27.116Z,80.20
2022-08-17T13:54:05.444Z,78.90
2022-08-17T13:56:39.538Z,77.70
2022-08-17T13:59:52.989Z,76.80
2022-08-17T14:02:14.198Z,76.10
2022-08-17T14:04:43.998Z,76.60
2022-08-17T14:09:54.728Z,76.80
2022-08-17T14:12:24.965Z,76.60
2022-08-17T14:14:55.067Z,76.60
2022-08-17T14:17:23.614Z,72.80
2022-08-17T14:19:51.703Z,72.30
2022-08-17T14:22:24.156Z,72.00
2022-08-17T14:24:51.677Z,72.80
2022-08-17T14:27:20.522Z,73.10
2022-08-17T14:29:48.626Z,76.20
2022-08-17T14:32:24.342Z,76.70
2022-08-17T14:34:52.452Z,76.40
2022-08-17T14:37:21.214Z,77.70
2022-08-17T14:39:48.585Z,76.30
2022-08-17T14:42:17.741Z,76.20
2022-08-17T14:44:44.990Z,75.80
2022-08-17T14:47:15.799Z,76.60
2022-08-17T14:49:43.712Z,76.20
2022-08-17T14:52:17.200Z,75.30
2022-08-17T14:54:45.914Z,76.30
2022-08-17T14:57:22.992Z,77.10
2022-08-17T15:00:01.286Z,76.90
2022-08-17T15:02:30.093Z,77.50
2022-08-17T15:05:01.848Z,78.60
2022-08-17T15:07:30.604Z,78.30
2022-08-17T15:10:01.477Z,77.70
2022-08-17T15:12:33.071Z,77.10
2022-08-17T15:15:04.445Z,77.30
2022-08-17T15:17:44.430Z,77.00
2022-08-17T15:20:16.711Z,77.40
2022-08-17T15:22:46.451Z,77.80
2022-08-17T15:25:14.111Z,77.80
2022-08-17T15:27:42.020Z,77.80
2022-08-17T15:30:10.075Z,77.80
2022-08-17T15:32:39.252Z,76.90
2022-08-17T15:35:09.220Z,76.60
2022-08-17T15:37:37.795Z,75.90
2022-08-17T15:40:07.202Z,76.10
2022-08-17T15:42:35.526Z,76.70
2022-08-17T15:45:07.800Z,76.90
2022-08-17T15:47:36.425Z,77.30
2022-08-17T15:50:06.488Z,76.80
2022-08-17T15:52:40.089Z,76.80
2022-08-17T15:55:11.391Z,75.10
2022-08-17T15:57:38.901Z,74.80
